Time;durP1;ratioP1;P1;durP2;ratioP2;P2;SDS_P1;SDS_P2;PMS_P1;PMS_P2;Temp;Humidity;BMP_temperature;BMP_pressure;BME280_temperature;BME280_humidity;BME280_pressure;Samples;Min_cycle;Max_cycle;Signal;HPM_P1;HPM_P2
2021/12/26 16:16:47;;;;;;;2.53;1.40;;;14.40;64.10;;;;;;2299946;62;29794;-76
2021/12/26 16:19:15;;;;;;;4.47;1.48;;;14.50;63.90;;;;;;2292274;62;30266;-79
2021/12/26 16:21:41;;;;;;;3.65;1.60;;;14.70;65.70;;;;;;2295557;62;30298;-76
2021/12/26 16:24:07;;;;;;;3.47;1.00;;;14.90;65.70;;;;;;2295284;62;30773;-75
2021/12/26 16:26:33;;;;;;;1.80;1.15;;;15.00;65.90;;;;;;2294873;62;30149;-69
2021/12/26 16:28:59;;;;;;;5.88;1.40;;;15.10;66.10;;;;;;2295185;62;30100;-71
2021/12/26 16:31:25;;;;;;;1.60;1.27;;;15.20;66.10;;;;;;2294361;62;30116;-71
2021/12/26 16:33:52;;;;;;;2.65;1.33;;;15.30;66.20;;;;;;2295558;62;30205;-71
2021/12/26 16:36:18;;;;;;;2.53;1.08;;;15.40;66.40;;;;;;2298803;62;30145;-72
2021/12/26 16:38:50;;;;;;;1.13;1.02;;;15.50;66.50;;;;;;2297816;62;30175;-71
2021/12/26 16:41:16;;;;;;;3.25;1.38;;;15.60;66.30;;;;;;2291357;62;30158;-71
2021/12/26 16:43:44;;;;;;;2.00;1.25;;;15.70;66.40;;;;;;2283606;62;30888;-71
2021/12/26 16:46:10;;;;;;;1.67;1.00;;;15.70;66.20;;;;;;2291158;62;29971;-71
2021/12/26 16:48:36;;;;;;;3.20;1.30;;;15.80;66.20;;;;;;2290980;62;30780;-71
2021/12/26 16:51:02;;;;;;;3.17;1.27;;;15.90;66.00;;;;;;2285038;62;30197;-71
2021/12/26 16:53:28;;;;;;;1.23;1.15;;;15.90;66.00;;;;;;2291558;62;30893;-71
2021/12/26 16:55:54;;;;;;;2.72;1.10;;;15.90;65.80;;;;;;2296140;62;30357;-71
2021/12/26 16:58:20;;;;;;;2.35;1.20;;;15.90;65.60;;;;;;2290823;62;30169;-71
2021/12/26 17:00:46;;;;;;;1.65;0.90;;;16.00;65.60;;;;;;2290919;62;30323;-71
2021/12/26 17:03:14;;;;;;;1.20;1.15;;;16.00;65.40;;;;;;2283606;62;31017;-72
2021/12/26 17:05:40;;;;;;;1.30;1.20;;;16.00;65.30;;;;;;2290371;62;30057;-71
2021/12/26 17:08:06;;;;;;;1.80;1.42;;;16.00;65.10;;;;;;2290071;62;30084;-70
2021/12/26 17:10:32;;;;;;;0.88;0.88;;;16.10;65.10;;;;;;2290425;62;30185;-71
2021/12/26 17:12:58;;;;;;;2.00;1.00;;;16.10;64.90;;;;;;2290915;62;29989;-71
2021/12/26 17:15:27;;;;;;;1.75;1.10;;;16.10;64.80;;;;;;2290590;62;30131;-70
2021/12/26 17:17:54;;;;;;;1.00;0.93;;;16.10;64.50;;;;;;2294272;62;30334;-71
2021/12/26 17:20:22;;;;;;;1.40;1.30;;;16.10;64.50;;;;;;2274846;62;31030;-72
2021/12/26 17:22:51;;;;;;;0.98;0.98;;;16.20;64.40;;;;;;2289849;62;30164;-72
2021/12/26 17:25:17;;;;;;;1.35;1.20;;;16.20;64.20;;;;;;2290774;62;30904;-70
2021/12/26 17:27:45;;;;;;;2.53;1.40;;;16.20;64.10;;;;;;2285663;62;30099;-71
2021/12/26 17:30:14;;;;;;;1.33;1.23;;;16.20;64.00;;;;;;2284767;62;30236;-71
2021/12/26 17:32:40;;;;;;;1.13;1.13;;;16.30;63.90;;;;;;2284796;62;30760;-72
2021/12/26 17:35:06;;;;;;;1.75;1.42;;;16.30;63.80;;;;;;2284458;62;30147;-72
2021/12/26 17:37:32;;;;;;;1.40;1.30;;;16.30;63.60;;;;;;2284435;62;30127;-71
2021/12/26 17:39:58;;;;;;;1.00;1.00;;;16.30;63.60;;;;;;2285383;62;30220;-71
2021/12/26 17:42:24;;;;;;;1.50;1.40;;;16.30;63.60;;;;;;2282576;62;32908;-71
2021/12/26 17:44:52;;;;;;;3.67;1.52;;;16.30;63.50;;;;;;2285075;62;30567;-71
2021/12/26 17:47:18;;;;;;;1.75;1.65;;;16.20;64.00;;;;;;2285303;62;30206;-71
2021/12/26 17:49:44;;;;;;;2.28;1.65;;;16.10;63.40;;;;;;2284409;62;30173;-71
2021/12/26 17:52:10;;;;;;;1.80;1.70;;;16.10;63.60;;;;;;2286365;62;30279;-71
2021/12/26 17:54:36;;;;;;;2.05;1.95;;;16.00;63.70;;;;;;2293375;62;30833;-72
2021/12/26 17:57:02;;;;;;;1.90;1.80;;;15.90;63.90;;;;;;2284150;62;30172;-71
2021/12/26 17:59:28;;;;;;;1.88;1.75;;;15.80;64.00;;;;;;2285066;62;30136;-72
2021/12/26 18:01:54;;;;;;;2.25;2.05;;;15.80;64.40;;;;;;2283596;62;30923;-72
2021/12/26 18:04:20;;;;;;;3.80;2.15;;;15.70;64.70;;;;;;2284948;62;30263;-71
2021/12/26 18:06:47;;;;;;;3.53;2.20;;;15.70;64.70;;;;;;2277784;62;30262;-76
2021/12/26 18:09:13;;;;;;;8.30;2.20;;;15.70;65.00;;;;;;2284932;62;30306;-72
2021/12/26 18:11:39;;;;;;;5.03;2.17;;;15.70;65.00;;;;;;2270450;62;32136;-74
2021/12/26 18:14:06;;;;;;;3.78;2.03;;;15.80;65.00;;;;;;2276737;62;30434;-73
2021/12/26 18:16:35;;;;;;;2.58;1.80;;;15.90;64.90;;;;;;2276416;62;30759;-74
2021/12/26 18:19:05;;;;;;;4.55;2.13;;;16.00;64.80;;;;;;2284597;62;30029;-75
2021/12/26 18:21:32;;;;;;;2.40;1.88;;;16.00;64.60;;;;;;2270213;62;31097;-73
2021/12/26 18:23:59;;;;;;;1.90;1.73;;;16.10;64.50;;;;;;2277185;62;30374;-73
2021/12/26 18:26:30;;;;;;;1.50;1.40;;;16.20;64.40;;;;;;2271276;62;30261;-74
2021/12/26 18:28:57;;;;;;;1.90;1.80;;;16.20;64.20;;;;;;2285144;62;29995;-74
2021/12/26 18:31:26;;;;;;;3.53;1.95;;;16.30;64.10;;;;;;2283012;62;31794;-73
2021/12/26 18:33:56;;;;;;;4.05;3.20;;;16.30;63.90;;;;;;2279473;62;30504;-73
2021/12/26 18:36:25;;;;;;;3.17;2.65;;;16.40;63.80;;;;;;2284935;62;30153;-73
2021/12/26 18:38:51;;;;;;;2.40;2.13;;;16.40;63.70;;;;;;2276978;62;30110;-72
2021/12/26 18:41:17;;;;;;;2.47;2.28;;;16.40;63.60;;;;;;2284665;62;32399;-71
2021/12/26 18:43:43;;;;;;;2.40;2.20;;;16.40;63.40;;;;;;2290814;62;30424;-72
2021/12/26 18:46:09;;;;;;;3.55;2.00;;;16.50;63.30;;;;;;2292973;62;30001;-71
2021/12/26 18:48:35;;;;;;;2.45;1.95;;;16.50;63.20;;;;;;2293208;62;30213;-73
2021/12/26 18:51:01;;;;;;;2.50;2.30;;;16.50;63.10;;;;;;2293181;62;30680;-73
2021/12/26 18:53:27;;;;;;;2.90;1.92;;;16.50;63.00;;;;;;2292880;62;30246;-73
2021/12/26 18:55:54;;;;;;;2.20;2.00;;;16.50;63.00;;;;;;2285308;62;30217;-75
2021/12/26 18:58:20;;;;;;;5.28;1.92;;;16.60;63.00;;;;;;2285574;62;30272;-71
2021/12/26 19:00:48;;;;;;;2.80;2.20;;;16.60;62.80;;;;;;2293048;62;29981;-70
2021/12/26 19:03:15;;;;;;;2.15;2.05;;;16.60;62.70;;;;;;2284395;62;30470;-71
2021/12/26 19:05:43;;;;;;;4.40;2.33;;;16.60;62.60;;;;;;2276696;62;30370;-71
2021/12/26 19:08:13;;;;;;;2.38;2.15;;;16.70;62.50;;;;;;2276332;62;30033;-71
2021/12/26 19:10:40;;;;;;;6.32;2.15;;;16.60;62.40;;;;;;2284345;62;30367;-71
2021/12/26 19:13:07;;;;;;;2.35;2.15;;;16.70;62.40;;;;;;2284466;62;30333;-71
2021/12/26 19:15:36;;;;;;;2.60;2.28;;;16.60;62.20;;;;;;2284629;62;30285;-71
2021/12/26 19:18:03;;;;;;;3.92;2.22;;;16.70;62.30;;;;;;2284892;62;30487;-72
2021/12/26 19:20:29;;;;;;;2.55;2.08;;;16.70;62.20;;;;;;2284573;62;30181;-71
2021/12/26 19:22:57;;;;;;;1.90;1.80;;;16.70;62.20;;;;;;2284703;62;29948;-70
2021/12/26 19:25:23;;;;;;;2.47;1.92;;;16.60;62.10;;;;;;2284970;62;30104;-71
2021/12/26 19:27:53;;;;;;;3.08;2.35;;;16.60;62.10;;;;;;2283973;62;30188;-71
2021/12/26 19:30:21;;;;;;;4.10;2.22;;;16.60;62.10;;;;;;2285656;62;30847;-71
2021/12/26 19:32:54;;;;;;;5.93;2.13;;;16.60;62.10;;;;;;2278711;62;30242;-72
2021/12/26 19:35:20;;;;;;;4.43;2.17;;;16.60;62.00;;;;;;2292531;62;30177;-71
2021/12/26 19:37:46;;;;;;;2.45;2.20;;;16.60;62.10;;;;;;2285618;62;30530;-71
2021/12/26 19:40:12;;;;;;;2.35;2.15;;;16.60;62.20;;;;;;2290400;62;30107;-72
2021/12/26 19:42:44;;;;;;;3.67;2.40;;;16.60;62.10;;;;;;2284217;62;30843;-72
2021/12/26 19:45:10;;;;;;;2.40;2.20;;;16.60;62.10;;;;;;2284346;62;30215;-72
2021/12/26 19:47:38;;;;;;;2.55;2.33;;;16.60;62.10;;;;;;2285094;62;30244;-72
2021/12/26 19:50:09;;;;;;;3.80;2.20;;;16.60;62.10;;;;;;2277084;62;30832;-72
2021/12/26 19:52:35;;;;;;;2.38;2.17;;;16.60;62.10;;;;;;2284473;62;30492;-72
2021/12/26 19:55:01;;;;;;;3.30;2.20;;;16.60;62.10;;;;;;2284237;62;30346;-73
2021/12/26 19:57:29;;;;;;;2.83;2.50;;;16.60;62.00;;;;;;2284631;62;30121;-73
2021/12/26 19:59:55;;;;;;;2.45;2.25;;;16.60;62.00;;;;;;2277125;62;30138;-73
2021/12/26 20:02:21;;;;;;;3.25;2.42;;;16.60;62.00;;;;;;2283819;62;29998;-73
2021/12/26 20:04:47;;;;;;;2.70;2.50;;;16.60;62.10;;;;;;2284291;62;30185;-73
2021/12/26 20:07:13;;;;;;;3.25;2.05;;;16.60;62.00;;;;;;2284358;62;30022;-73
2021/12/26 20:09:39;;;;;;;2.38;2.20;;;16.60;62.00;;;;;;2284309;62;30625;-73
2021/12/26 20:12:05;;;;;;;2.30;2.10;;;16.60;61.90;;;;;;2284320;62;30052;-73
2021/12/26 20:14:33;;;;;;;2.65;2.35;;;16.60;61.90;;;;;;2284366;62;30176;-73
2021/12/26 20:17:00;;;;;;;2.35;2.15;;;16.60;61.90;;;;;;2283363;62;30137;-73
2021/12/26 20:19:26;;;;;;;5.40;2.35;;;16.60;61.90;;;;;;2284755;62;30150;-75
2021/12/26 20:21:52;;;;;;;3.15;2.25;;;16.60;61.80;;;;;;2292594;62;30097;-74
2021/12/26 20:24:20;;;;;;;2.95;2.13;;;16.60;61.80;;;;;;2283087;62;30196;-77
2021/12/26 20:26:46;;;;;;;2.30;2.10;;;16.60;61.60;;;;;;2282577;62;30662;-76
2021/12/26 20:29:12;;;;;;;2.58;2.38;;;16.70;61.50;;;;;;2283413;62;30073;-76
2021/12/26 20:31:38;;;;;;;2.00;1.80;;;16.80;61.40;;;;;;2276822;62;30010;-76
2021/12/26 20:34:04;;;;;;;2.20;2.00;;;16.80;61.50;;;;;;2283813;62;30580;-76
2021/12/26 20:36:30;;;;;;;2.50;2.30;;;16.90;61.10;;;;;;2284417;62;29926;-76
2021/12/26 20:38:56;;;;;;;1.90;1.80;;;17.00;61.00;;;;;;2283611;62;30211;-78
2021/12/26 20:41:22;;;;;;;2.97;2.03;;;17.00;60.80;;;;;;2283952;62;30806;-78
2021/12/26 20:43:50;;;;;;;2.42;2.22;;;17.10;60.80;;;;;;2281696;62;30209;-78
2021/12/26 20:46:18;;;;;;;2.40;2.25;;;17.20;60.70;;;;;;2287507;62;30354;-78
2021/12/26 20:48:46;;;;;;;2.25;2.05;;;17.20;60.60;;;;;;2291188;62;30172;-78
2021/12/26 20:51:14;;;;;;;2.38;2.15;;;17.30;60.50;;;;;;2277191;62;30164;-77
2021/12/26 20:53:43;;;;;;;2.10;2.00;;;17.30;60.50;;;;;;2277293;62;30129;-77
2021/12/26 20:56:09;;;;;;;2.30;2.10;;;17.30;60.40;;;;;;2291320;62;30088;-78
2021/12/26 20:58:35;;;;;;;2.22;2.03;;;17.30;60.30;;;;;;2291340;62;30669;-77
2021/12/26 21:01:02;;;;;;;2.10;2.00;;;17.40;60.40;;;;;;2278142;62;30822;-77
2021/12/26 21:03:38;;;;;;;4.78;2.38;;;17.40;60.20;;;;;;2292235;62;30250;-77
2021/12/26 21:06:04;;;;;;;2.53;2.33;;;17.40;60.20;;;;;;2285148;62;30132;-76
2021/12/26 21:08:30;;;;;;;3.05;2.30;;;17.40;60.20;;;;;;2283751;62;30968;-76
2021/12/26 21:11:00;;;;;;;2.20;2.00;;;17.40;60.20;;;;;;2284328;62;30665;-76
2021/12/26 21:13:26;;;;;;;5.70;2.35;;;17.40;60.10;;;;;;2283349;62;30154;-71
2021/12/26 21:15:53;;;;;;;3.00;2.47;;;17.40;60.00;;;;;;2279967;62;30390;-71
2021/12/26 21:18:21;;;;;;;2.65;2.42;;;17.40;60.10;;;;;;2276734;62;30714;-70
2021/12/26 21:20:50;;;;;;;2.85;2.47;;;17.40;60.70;;;;;;2276754;62;30094;-72
2021/12/26 21:23:18;;;;;;;2.45;2.30;;;17.40;60.20;;;;;;2283529;62;30192;-72
2021/12/26 21:25:46;;;;;;;2.58;2.38;;;17.50;60.20;;;;;;2270189;62;29987;-72
2021/12/26 21:28:12;;;;;;;2.42;2.22;;;17.50;60.10;;;;;;2283256;62;30279;-72
2021/12/26 21:30:40;;;;;;;4.03;2.80;;;17.50;60.10;;;;;;2269945;62;30455;-72
2021/12/26 21:33:06;;;;;;;2.65;2.45;;;17.50;60.10;;;;;;2284156;62;30096;-72
2021/12/26 21:35:32;;;;;;;2.85;2.65;;;17.40;60.10;;;;;;2276446;62;30303;-71
2021/12/26 21:37:59;;;;;;;2.30;2.10;;;17.40;60.10;;;;;;2275036;62;32546;-71
2021/12/26 21:40:25;;;;;;;2.80;2.30;;;17.40;60.00;;;;;;2276276;62;30289;-71
2021/12/26 21:42:51;;;;;;;2.78;2.58;;;17.40;60.10;;;;;;2276652;62;30175;-71
2021/12/26 21:45:19;;;;;;;2.88;2.50;;;17.40;60.00;;;;;;2283933;62;30057;-71
2021/12/26 21:47:45;;;;;;;2.30;2.20;;;17.40;60.00;;;;;;2280791;62;30320;-71
2021/12/26 21:50:15;;;;;;;2.92;2.63;;;17.40;60.00;;;;;;2280921;62;30136;-71
2021/12/26 21:52:44;;;;;;;2.47;2.28;;;17.50;60.00;;;;;;2280411;62;30232;-72
2021/12/26 21:55:12;;;;;;;2.60;2.40;;;17.40;59.90;;;;;;2281723;62;30145;-71
2021/12/26 21:57:42;;;;;;;2.70;2.50;;;17.50;59.90;;;;;;2284339;62;30748;-71
2021/12/26 22:00:09;;;;;;;2.90;2.70;;;17.40;59.70;;;;;;2283349;62;30691;-71
2021/12/26 22:02:36;;;;;;;2.88;2.67;;;17.50;59.90;;;;;;2292064;62;30104;-73
2021/12/26 22:05:03;;;;;;;3.17;2.85;;;17.50;59.80;;;;;;2284399;62;30227;-72
2021/12/26 22:07:32;;;;;;;2.75;2.55;;;17.40;59.70;;;;;;2292120;62;30122;-71
2021/12/26 22:09:57;;;;;;;2.85;2.60;;;17.40;59.70;;;;;;2291800;62;30838;-72
2021/12/26 22:12:23;;;;;;;2.60;2.40;;;17.40;59.70;;;;;;2292100;62;30074;-73
2021/12/26 22:14:51;;;;;;;2.92;2.38;;;17.40;59.60;;;;;;2291917;62;30082;-71
2021/12/26 22:17:16;;;;;;;2.83;2.63;;;17.50;59.70;;;;;;2284497;62;30821;-71
2021/12/26 22:19:44;;;;;;;2.60;2.40;;;17.50;59.60;;;;;;2291867;62;30231;-71
2021/12/26 22:22:15;;;;;;;2.67;2.45;;;17.50;59.70;;;;;;2287784;62;30826;-71
2021/12/26 22:24:47;;;;;;;2.80;2.60;;;17.50;59.60;;;;;;2282974;62;30557;-69
2021/12/26 22:27:16;;;;;;;2.72;2.53;;;17.50;59.60;;;;;;2283714;62;31059;-69
2021/12/26 22:29:43;;;;;;;2.70;2.50;;;17.40;59.60;;;;;;2283619;62;30178;-70
2021/12/26 22:32:14;;;;;;;2.92;2.72;;;17.50;59.70;;;;;;2283776;62;30071;-71
2021/12/26 22:34:40;;;;;;;2.97;2.78;;;17.50;60.20;;;;;;2283689;62;30139;-72
2021/12/26 22:37:07;;;;;;;2.85;2.65;;;17.50;59.50;;;;;;2283351;62;30215;-70
2021/12/26 22:39:37;;;;;;;3.15;2.80;;;17.50;59.50;;;;;;2283857;62;30463;-71
2021/12/26 22:42:03;;;;;;;3.03;2.83;;;17.40;59.40;;;;;;2283599;62;30209;-71
2021/12/26 22:44:49;;;;;;;4.22;3.05;;;17.50;59.50;;;;;;2282055;62;30681;-73
2021/12/26 22:47:18;;;;;;;15.07;3.70;;;17.50;59.50;;;;;;2283725;62;31085;-71
2021/12/26 22:49:44;;;;;;;4.00;2.95;;;17.40;59.50;;;;;;2282938;62;31175;-72
2021/12/26 22:52:17;;;;;;;2.90;2.65;;;17.50;59.50;;;;;;2283603;62;30102;-72
2021/12/26 22:54:46;;;;;;;3.47;2.70;;;17.50;59.50;;;;;;2276887;62;30079;-72
2021/12/26 22:57:12;;;;;;;2.88;2.60;;;17.50;59.50;;;;;;2283622;62;30158;-71
2021/12/26 22:59:39;;;;;;;2.90;2.70;;;17.50;59.40;;;;;;2283673;62;30086;-72
2021/12/26 23:02:10;;;;;;;3.00;2.80;;;17.50;59.30;;;;;;2287092;62;30267;-72
2021/12/26 23:04:55;;;;;;;2.90;2.70;;;17.50;59.30;;;;;;2285199;62;30068;-72
2021/12/26 23:07:25;;;;;;;3.50;2.90;;;17.50;59.30;;;;;;2291239;62;30138;-72
2021/12/26 23:09:53;;;;;;;9.77;5.80;;;17.60;59.20;;;;;;2291628;62;30344;-73
2021/12/26 23:12:24;;;;;;;;;;;17.60;59.20;;;;;;2292215;62;30172;-73
2021/12/26 23:14:52;;;;;;;20.35;8.50;;;17.50;59.00;;;;;;2292032;62;30051;-72
2021/12/26 23:17:28;;;;;;;12.82;7.53;;;17.50;59.30;;;;;;2291306;62;30104;-72
2021/12/26 23:20:05;;;;;;;15.50;6.10;;;17.50;59.20;;;;;;2273267;62;30331;-73
2021/12/26 23:22:34;;;;;;;13.35;5.63;;;17.50;59.20;;;;;;2288872;62;30180;-71
2021/12/26 23:25:04;;;;;;;11.07;5.43;;;17.50;59.20;;;;;;2291508;62;30819;-74
2021/12/26 23:27:32;;;;;;;8.23;5.20;;;17.50;59.20;;;;;;2291886;62;30782;-73
2021/12/26 23:29:58;;;;;;;6.13;4.80;;;17.50;59.30;;;;;;2291857;62;30547;-73
2021/12/26 23:32:24;;;;;;;7.30;4.47;;;17.40;59.40;;;;;;2289658;62;30081;-71
2021/12/26 23:34:49;;;;;;;7.18;4.45;;;17.50;59.50;;;;;;2283341;62;30214;-70
2021/12/26 23:37:19;;;;;;;6.20;4.13;;;17.40;59.40;;;;;;2283436;62;30151;-70
2021/12/26 23:39:46;;;;;;;5.53;4.10;;;17.40;59.50;;;;;;2283418;62;30447;-70
2021/12/26 23:42:14;;;;;;;7.70;4.38;;;17.30;59.30;;;;;;2283135;62;30600;-71
2021/12/26 23:44:43;;;;;;;7.82;4.00;;;17.20;59.40;;;;;;2280386;62;30137;-70
2021/12/26 23:47:09;;;;;;;6.82;3.88;;;17.10;60.10;;;;;;2283229;62;30203;-71
2021/12/26 23:49:35;;;;;;;5.72;4.50;;;17.00;59.70;;;;;;2275773;62;30171;-69
2021/12/26 23:52:02;;;;;;;5.57;3.88;;;16.90;59.80;;;;;;2286058;62;30636;-71
2021/12/26 23:54:27;;;;;;;6.03;4.05;;;16.80;59.90;;;;;;2279115;62;30431;-70
2021/12/26 23:56:53;;;;;;;5.88;3.80;;;16.70;60.00;;;;;;2287400;62;30654;-70
